Terminal Aerodrome Forecast
Issued by NWS Brownsville, TX

Home | Current Version | Previous Version | Text Only | Print | Product List | Glossary On
Versions: 1 2 3 4 5 6 7 8 9 10 11 12 13 14
000
FTUS44 KBRO 230500
TAFBRO
TAF
KBRO 230520Z 2306/2406 14005KT P6SM SCT250
     FM231900 12012G18KT P6SM SCT250
     FM232300 11012KT P6SM SCT250=

USA.gov is the U.S. government's official web portal to all federal, state and local government web resources and services.